Decoded Metar for LFBT (TARBES in FRANCE) (IATA:LDE) | Meteo·Mobile Aviation Weather
aviador You're here:

LFBT Decoded Metar

TARBES in FRANCE
Report Time2019-07-21 17:30:00
UTC Time2019-07-21 17:50:21
Flight Rules vfr VFR
Wind130° at 03 kt
W.Decomp.*RWY 20: 1.0 kt HW 2.8 kt LCW
Visibility9999 m
Phenomena:N/A
Clouds:Few 032 Hf
Expected CloudBase > 2,800 ft AGL from Temp-Dew spread
CeilingNone
Temp27°C (ISA +14)
Dew Point20°C (66% RH)
Heat Index28.5°C
QNH1022 hPa
Density Alt2,858 ft
Elevation1,191 ft
Report Wrong Elevation
Raw Report
LFBT 211730Z AUTO 13003KT 090V150 9999 FEW032 27/20 Q1022
NOSIG=

Extra information for LFBT:More info

Metar Taf Metar & Taf Last 4 Metars F.Rules Stats Wind Profile Meteogram Temp Stats Airport Information Weather charts Add Link Nearby VenuesMetar ALERT Operation Metar Decoded Social comments